Accueil
METAR-TAF:

METAR-TAF

Aéroports :

Brescia Ghedi, Italie

latitude: 45-25N, longitude: 010-17E, altitude: 102 m

Observation

Le bulletin a été fait il y a 41 minutes, à 20:55 UTC
Vent 3 kt de ouest/sud-ouest
Température 25°C
Humidité 94%
Pression 1018 hPa
Visibilité: 6000 m
Quelques nuages à une hauteur de 4500 ft

METAR: LIPL 202055Z 25003KT 6000 FEW045 25/24 Q1018 RMK BKN SCT120 VIS MIN 6000 WIND THR31 26004KT WIND THR13 27005KT WHT

Heure: 23:36 (21:36 UTC)

Prévision

Le bulletin a été fait il y a 1 heure et 36 minutes, à 20:00 UTC
Prévision valable du 20 à 21 UTC au 21 à 06 UTC
Vent 3 kt de direction variable
Visibilité: 3000 m
Nuages épars à une hauteur de 4000 ft
Nuages épars à une hauteur de 8000 ft
brume,

TAF: LIPL 202000Z 2021/2106 VRB03KT 3000 BR SCT040 SCT080

Observations et prévisions météorologiques de plus de 4000 aéroports (messages METAR et TAF).

Les stations disponibles sont représentées par des disques jaunes et rouges sur la carte.

Passer la souris dessus pour voir le nom de la station.

Cliquer dessus pour voir les observations et prévisions météorologiques.

Pour changer de carte: cliquez sur les boutons verts avec une croix noire pour zoomer, sur le bouton vert avec un tiret pour effectuer un zoom arrière, ou sur les flèches vertes pour les cartes adjacentes.


METAR-TAF: